Time;durP1;ratioP1;P1;durP2;ratioP2;P2;SDS_P1;SDS_P2;PMS_P1;PMS_P2;Temp;Humidity;BMP_temperature;BMP_pressure;BME280_temperature;BME280_humidity;BME280_pressure;Samples;Min_cycle;Max_cycle;Signal;HPM_P1;HPM_P2
2022/09/09 00:01:25;;;;;;;7.15;1.75;;;13.40;99.90;;;;;;4994751;28;20033;-86
2022/09/09 00:03:58;;;;;;;8.35;2.08;;;13.30;99.90;;;;;;4978353;28;20493;-85
2022/09/09 00:07:03;;;;;;;9.68;2.33;;;13.20;99.90;;;;;;4994403;28;20389;-86
2022/09/09 00:09:37;;;;;;;7.75;2.65;;;13.10;99.90;;;;;;4987955;28;20035;-86
2022/09/09 00:12:24;;;;;;;7.22;2.22;;;13.10;99.90;;;;;;4994718;28;20042;-85
2022/09/09 00:15:07;;;;;;;9.27;2.00;;;13.10;99.90;;;;;;4994398;28;20035;-86
2022/09/09 00:17:36;;;;;;;9.07;1.90;;;13.10;99.90;;;;;;4978337;28;20030;-86
2022/09/09 00:20:05;;;;;;;7.53;2.15;;;13.20;99.90;;;;;;4994110;28;20024;-85
2022/09/09 00:22:32;;;;;;;5.35;1.92;;;13.20;99.90;;;;;;4994537;28;20077;-85
2022/09/09 00:25:16;;;;;;;5.00;2.58;;;13.20;99.90;;;;;;4994185;28;20031;-85
2022/09/09 00:27:46;;;;;;;5.25;2.40;;;13.20;99.90;;;;;;4995549;28;20031;-86
2022/09/09 00:30:22;;;;;;;5.28;2.08;;;13.20;99.90;;;;;;4994497;28;20053;-86
2022/09/09 00:33:11;;;;;;;5.07;2.28;;;13.20;99.90;;;;;;4995616;28;20040;-85
2022/09/09 00:35:46;;;;;;;8.57;3.40;;;13.10;99.90;;;;;;5008217;28;20018;-85
2022/09/09 00:38:20;;;;;;;5.90;2.17;;;13.10;99.90;;;;;;4981246;28;20022;-86
2022/09/09 00:41:04;;;;;;;12.20;2.10;;;13.20;99.90;;;;;;4993693;28;20121;-85
2022/09/09 00:43:32;;;;;;;8.50;2.58;;;13.20;99.90;;;;;;4994116;28;20065;-85
2022/09/09 00:46:28;;;;;;;9.23;2.47;;;13.10;99.90;;;;;;4993072;28;20026;-85
2022/09/09 00:49:00;;;;;;;6.32;2.50;;;13.20;99.90;;;;;;4976437;28;20137;-85
2022/09/09 00:51:44;;;;;;;9.88;2.30;;;13.30;99.90;;;;;;4977859;28;20034;-85
2022/09/09 00:54:33;;;;;;;8.68;2.10;;;13.30;99.90;;;;;;4993661;28;20034;-85
2022/09/09 00:56:59;;;;;;;9.98;2.72;;;13.30;99.90;;;;;;4977640;28;20031;-85
2022/09/09 00:59:48;;;;;;;15.43;2.92;;;13.30;99.90;;;;;;4993256;28;20030;-85
2022/09/09 01:02:29;;;;;;;11.65;2.45;;;13.30;99.90;;;;;;4976057;28;20023;-86
2022/09/09 01:05:07;;;;;;;5.43;2.25;;;13.20;99.90;;;;;;4982718;28;20061;-85
2022/09/09 01:07:32;;;;;;;10.15;2.90;;;13.20;99.90;;;;;;4973599;28;20034;-85
2022/09/09 01:10:03;;;;;;;6.03;2.28;;;13.30;99.90;;;;;;4993282;28;20034;-85
2022/09/09 01:12:42;;;;;;;5.20;2.17;;;13.30;99.90;;;;;;4993687;28;20026;-85
2022/09/09 01:15:30;;;;;;;5.00;2.40;;;13.30;99.90;;;;;;4989932;28;20390;-85
2022/09/09 01:18:15;;;;;;;5.47;2.10;;;13.30;99.90;;;;;;4993029;28;20384;-85
2022/09/09 01:20:44;;;;;;;7.57;2.00;;;13.40;99.90;;;;;;4977413;28;20034;-85
2022/09/09 01:23:42;;;;;;;9.95;2.47;;;13.40;99.90;;;;;;4976895;28;20085;-85
2022/09/09 01:26:39;;;;;;;;;;;13.50;99.90;;;;;;4974884;28;20030;-85
2022/09/09 01:29:13;;;;;;;10.18;2.42;;;13.50;99.90;;;;;;4993121;28;19914;-85
2022/09/09 01:31:56;;;;;;;4.15;1.90;;;13.40;99.90;;;;;;4997547;28;20030;-85
2022/09/09 01:34:24;;;;;;;6.13;2.00;;;13.30;99.90;;;;;;4993101;28;20030;-85
2022/09/09 01:40:38;;;;;;;7.07;1.98;;;13.20;99.90;;;;;;4994946;28;20049;-85
2022/09/09 01:43:04;;;;;;;7.30;1.83;;;13.20;99.90;;;;;;4989136;28;20034;-85
2022/09/09 01:46:04;;;;;;;4.68;1.60;;;13.20;99.90;;;;;;4996899;28;20045;-86
2022/09/09 01:48:33;;;;;;;7.28;2.30;;;13.30;99.90;;;;;;4988383;28;20030;-86
2022/09/09 01:51:02;;;;;;;4.93;2.13;;;13.30;99.90;;;;;;4998968;28;20038;-85
2022/09/09 01:53:29;;;;;;;5.30;2.20;;;13.40;99.90;;;;;;4992053;28;20037;-85
2022/09/09 01:56:18;;;;;;;4.38;2.15;;;13.40;99.90;;;;;;4992056;28;20026;-85
2022/09/09 01:59:12;;;;;;;8.77;2.35;;;13.40;99.90;;;;;;4992262;28;20033;-85
2022/09/09 02:01:42;;;;;;;6.97;2.30;;;13.50;99.90;;;;;;4989364;28;20493;-85
2022/09/09 02:04:38;;;;;;;7.07;2.72;;;13.50;99.90;;;;;;4976118;28;20030;-85
2022/09/09 02:07:40;;;;;;;4.47;2.40;;;13.40;99.90;;;;;;4977010;28;20381;-85
2022/09/09 02:10:19;;;;;;;8.73;2.13;;;13.40;99.90;;;;;;4985247;28;20781;-85
2022/09/09 02:13:09;;;;;;;8.75;2.13;;;13.40;99.90;;;;;;4991944;28;20836;-85
2022/09/09 02:15:38;;;;;;;7.38;2.17;;;13.40;99.90;;;;;;4976020;28;20038;-85
2022/09/09 02:18:08;;;;;;;8.45;2.35;;;13.40;99.90;;;;;;4992095;28;20409;-85
2022/09/09 02:20:37;;;;;;;5.93;2.25;;;13.40;99.90;;;;;;4992431;28;20033;-85
2022/09/09 02:23:05;;;;;;;5.18;1.88;;;13.40;99.90;;;;;;4992440;28;20077;-85
2022/09/09 02:25:33;;;;;;;10.50;2.40;;;13.40;99.90;;;;;;4992399;28;20030;-85
2022/09/09 02:28:14;;;;;;;4.75;2.10;;;13.40;99.90;;;;;;4991979;28;20162;-86
2022/09/09 02:30:42;;;;;;;6.10;2.60;;;13.30;99.90;;;;;;4992335;28;20749;-85
2022/09/09 02:33:35;;;;;;;7.10;2.00;;;13.30;99.90;;;;;;4991729;28;20113;-85
2022/09/09 02:36:03;;;;;;;;;;;13.30;99.90;;;;;;4992780;28;20425;-85
2022/09/09 02:38:35;;;;;;;6.20;2.10;;;13.30;99.90;;;;;;4991664;28;19952;-85
2022/09/09 02:41:06;;;;;;;8.23;2.20;;;13.30;99.90;;;;;;4976817;28;20026;-85
2022/09/09 02:43:51;;;;;;;10.60;2.30;;;13.40;99.90;;;;;;4991600;28;20133;-85
2022/09/09 02:46:25;;;;;;;8.82;2.08;;;13.50;99.90;;;;;;4972739;28;20100;-85
2022/09/09 02:49:07;;;;;;;8.60;2.40;;;13.60;99.90;;;;;;4992141;28;20050;-85
2022/09/09 02:51:55;;;;;;;4.05;1.92;;;13.60;99.90;;;;;;4976737;28;20068;-85
2022/09/09 02:54:30;;;;;;;6.32;2.08;;;13.70;99.90;;;;;;4991818;28;20035;-85
2022/09/09 02:57:10;;;;;;;5.10;1.98;;;13.70;99.90;;;;;;4991470;28;20022;-84
2022/09/09 02:59:39;;;;;;;2.90;1.70;;;13.70;99.90;;;;;;4991289;28;20114;-85
2022/09/09 03:02:05;;;;;;;9.85;2.42;;;13.70;99.90;;;;;;4989893;28;20036;-85
2022/09/09 03:04:32;;;;;;;11.68;2.45;;;13.60;99.90;;;;;;4990768;28;20034;-85
2022/09/09 03:06:58;;;;;;;6.72;1.90;;;13.60;99.90;;;;;;4991583;28;20370;-85
2022/09/09 03:09:25;;;;;;;5.68;2.15;;;13.60;99.90;;;;;;4991793;28;20128;-85
2022/09/09 03:11:52;;;;;;;11.02;2.25;;;13.50;99.90;;;;;;4995029;28;20057;-85
2022/09/09 03:14:21;;;;;;;7.85;2.10;;;13.50;99.90;;;;;;4995435;28;20026;-84
2022/09/09 03:16:48;;;;;;;6.38;1.90;;;13.50;99.90;;;;;;4995377;28;20022;-85
2022/09/09 03:19:14;;;;;;;6.85;2.97;;;13.50;99.90;;;;;;4992378;28;20034;-85
2022/09/09 03:21:40;;;;;;;8.73;2.65;;;13.40;99.90;;;;;;4993377;28;20038;-85
2022/09/09 03:24:06;;;;;;;4.05;1.70;;;13.40;99.90;;;;;;4995125;28;20033;-85
2022/09/09 03:26:33;;;;;;;10.45;2.20;;;13.40;99.90;;;;;;4995396;28;20532;-85
2022/09/09 03:29:00;;;;;;;7.10;1.83;;;13.30;99.90;;;;;;4994970;28;20030;-85
2022/09/09 03:31:29;;;;;;;3.60;2.38;;;13.20;99.90;;;;;;4995258;28;20121;-85
2022/09/09 03:33:57;;;;;;;5.05;1.98;;;13.20;99.90;;;;;;4994700;28;20027;-85
2022/09/09 03:36:26;;;;;;;6.97;2.22;;;13.10;99.90;;;;;;4995055;28;20026;-85
2022/09/09 03:38:54;;;;;;;9.82;2.22;;;13.00;99.90;;;;;;4995138;28;20018;-85
2022/09/09 03:41:24;;;;;;;6.22;1.67;;;13.00;99.90;;;;;;4995080;28;20033;-85
2022/09/09 03:43:54;;;;;;;6.00;1.50;;;13.00;99.90;;;;;;5004999;28;20477;-85
2022/09/09 03:46:25;;;;;;;6.47;1.70;;;13.00;99.90;;;;;;4994564;28;20489;-85
2022/09/09 03:48:52;;;;;;;5.68;1.65;;;13.10;99.90;;;;;;4994668;28;20434;-85
2022/09/09 03:51:18;;;;;;;2.13;1.30;;;13.00;99.90;;;;;;4994909;28;20026;-85
2022/09/09 03:53:45;;;;;;;11.40;1.40;;;13.10;99.90;;;;;;4994331;28;20441;-85
2022/09/09 03:56:11;;;;;;;3.28;1.15;;;13.10;99.90;;;;;;4994321;28;20033;-85
2022/09/09 03:58:37;;;;;;;7.47;1.55;;;13.10;99.90;;;;;;4994538;28;20026;-84
2022/09/09 04:01:09;;;;;;;10.02;1.60;;;13.00;99.90;;;;;;4994342;28;20026;-85
2022/09/09 04:03:35;;;;;;;5.28;1.30;;;13.00;99.90;;;;;;4996633;28;20028;-85
2022/09/09 04:06:03;;;;;;;4.30;1.27;;;12.90;99.90;;;;;;4994533;28;20022;-85
2022/09/09 04:08:33;;;;;;;6.20;1.58;;;12.90;99.90;;;;;;4994837;28;20041;-85
2022/09/09 04:11:02;;;;;;;7.78;1.20;;;12.90;99.90;;;;;;4994264;28;20930;-85
2022/09/09 04:13:28;;;;;;;3.45;1.50;;;12.90;99.90;;;;;;4992904;28;20030;-85
2022/09/09 04:15:58;;;;;;;5.43;1.50;;;13.00;99.90;;;;;;4993965;28;20068;-85
2022/09/09 04:18:25;;;;;;;4.03;1.38;;;13.00;99.90;;;;;;4977483;28;20041;-85
2022/09/09 04:20:52;;;;;;;3.47;1.50;;;13.00;99.90;;;;;;4994177;28;20077;-84
2022/09/09 04:23:21;;;;;;;6.15;1.30;;;13.10;99.90;;;;;;4993851;28;20390;-85
2022/09/09 04:25:49;;;;;;;2.22;1.00;;;13.10;99.90;;;;;;4993965;28;20030;-85
2022/09/09 04:28:16;;;;;;;4.28;1.48;;;13.10;99.90;;;;;;4993629;28;20033;-85
2022/09/09 04:30:44;;;;;;;3.05;1.60;;;13.10;99.90;;;;;;4993978;28;20030;-85
2022/09/09 04:33:10;;;;;;;10.40;1.23;;;13.20;99.90;;;;;;4993542;28;20038;-85
2022/09/09 04:35:38;;;;;;;8.02;2.65;;;13.20;99.90;;;;;;4993793;28;20018;-85
2022/09/09 04:38:07;;;;;;;4.97;1.55;;;13.30;99.90;;;;;;4992385;28;20030;-85
2022/09/09 04:40:33;;;;;;;4.32;1.20;;;13.30;99.90;;;;;;4993568;28;20026;-85
2022/09/09 04:43:03;;;;;;;3.30;1.00;;;13.30;99.90;;;;;;4993347;28;20023;-86
2022/09/09 04:45:30;;;;;;;4.45;1.10;;;13.30;99.90;;;;;;4993531;28;20031;-86
2022/09/09 04:47:56;;;;;;;3.70;1.20;;;13.20;99.90;;;;;;4993613;28;20030;-86
2022/09/09 04:54:11;;;;;;;3.35;1.20;;;13.00;99.90;;;;;;4989716;28;20057;-86
2022/09/09 04:56:43;;;;;;;4.05;1.30;;;12.90;99.90;;;;;;4993568;28;20026;-86
2022/09/09 04:59:10;;;;;;;5.05;1.20;;;12.90;99.90;;;;;;4993730;28;20018;-86
2022/09/09 05:01:42;;;;;;;4.70;1.40;;;12.80;99.90;;;;;;4993666;28;20433;-86
2022/09/09 05:04:08;;;;;;;3.90;1.10;;;12.80;99.90;;;;;;4993209;28;20481;-85
2022/09/09 05:06:35;;;;;;;2.22;1.00;;;12.80;99.90;;;;;;4993201;28;20465;-85
2022/09/09 05:09:01;;;;;;;4.97;1.65;;;12.80;99.90;;;;;;4992954;28;20022;-85
2022/09/09 05:11:32;;;;;;;9.10;1.35;;;12.90;99.90;;;;;;4993022;28;20037;-85
2022/09/09 05:14:06;;;;;;;3.92;1.45;;;12.80;99.90;;;;;;4992788;28;20029;-85
2022/09/09 05:16:32;;;;;;;1.23;0.90;;;12.90;99.90;;;;;;4992567;28;20022;-85
2022/09/09 05:18:58;;;;;;;5.32;1.13;;;12.90;99.90;;;;;;4992506;28;20080;-85
2022/09/09 05:21:28;;;;;;;4.05;1.73;;;12.90;99.90;;;;;;4992608;28;20049;-85
2022/09/09 05:23:54;;;;;;;2.35;0.85;;;12.90;99.90;;;;;;4992454;28;20053;-85
2022/09/09 05:26:22;;;;;;;3.45;1.00;;;13.00;99.90;;;;;;4992112;28;20018;-85
2022/09/09 05:28:50;;;;;;;3.00;1.67;;;13.10;99.90;;;;;;4991852;28;20410;-85
2022/09/09 05:31:17;;;;;;;2.50;1.20;;;13.20;99.90;;;;;;4989721;28;20027;-85
2022/09/09 05:33:45;;;;;;;4.68;1.25;;;13.20;99.90;;;;;;4989183;28;20494;-85
2022/09/09 05:36:15;;;;;;;4.03;1.10;;;13.20;99.90;;;;;;4992671;28;20026;-85
2022/09/09 05:38:42;;;;;;;2.83;1.10;;;13.20;99.90;;;;;;4992248;28;20022;-85
2022/09/09 05:41:10;;;;;;;2.63;1.02;;;13.20;99.90;;;;;;4992796;28;20030;-85
2022/09/09 05:43:37;;;;;;;3.55;0.98;;;13.20;99.90;;;;;;4992386;28;20081;-85
2022/09/09 05:46:06;;;;;;;3.40;1.23;;;13.10;99.90;;;;;;4992619;28;20291;-85
2022/09/09 05:48:34;;;;;;;3.80;1.20;;;13.20;99.90;;;;;;4992575;28;20759;-85
2022/09/09 05:51:02;;;;;;;5.82;1.45;;;13.40;99.90;;;;;;4991790;28;20026;-85
2022/09/09 05:53:33;;;;;;;2.80;1.20;;;13.40;99.90;;;;;;4991959;28;20030;-85
2022/09/09 05:56:27;;;;;;;5.13;0.90;;;13.50;99.90;;;;;;4976318;28;20374;-85
2022/09/09 05:58:54;;;;;;;2.08;1.38;;;13.60;99.90;;;;;;4991267;28;20039;-85
2022/09/09 06:01:26;;;;;;;5.80;1.30;;;13.60;99.90;;;;;;4991736;28;20165;-85
2022/09/09 06:03:53;;;;;;;5.25;1.27;;;13.70;99.90;;;;;;4975777;28;20054;-85
2022/09/09 06:06:25;;;;;;;5.47;1.08;;;13.70;99.90;;;;;;4991864;28;20034;-85
2022/09/09 06:08:57;;;;;;;6.90;1.20;;;13.80;99.90;;;;;;4993368;28;20057;-85
2022/09/09 06:12:20;;;;;;;2.50;0.95;;;14.00;99.90;;;;;;5008334;28;20039;-85
2022/09/09 06:14:46;;;;;;;4.72;0.90;;;14.10;99.90;;;;;;4987670;28;20026;-85
2022/09/09 06:17:14;;;;;;;5.50;1.02;;;14.20;99.90;;;;;;4991805;28;20489;-85
2022/09/09 06:19:39;;;;;;;8.85;1.23;;;14.50;99.90;;;;;;4991500;28;20121;-85
2022/09/09 06:22:06;;;;;;;2.97;1.33;;;14.80;99.90;;;;;;4991607;28;20570;-85
2022/09/09 06:24:35;;;;;;;3.28;1.10;;;14.90;99.90;;;;;;4985301;28;20042;-85
2022/09/09 06:27:02;;;;;;;2.72;0.90;;;15.10;99.90;;;;;;4989732;28;20025;-85
2022/09/09 06:29:32;;;;;;;4.38;1.13;;;15.30;99.90;;;;;;4972065;28;20070;-85
2022/09/09 06:31:58;;;;;;;3.38;0.88;;;15.40;99.90;;;;;;4985730;28;20058;-85
2022/09/09 06:34:26;;;;;;;3.33;1.40;;;15.50;99.90;;;;;;4990686;28;20069;-85
2022/09/09 06:36:55;;;;;;;2.63;0.90;;;15.80;99.90;;;;;;4987705;28;20049;-85
2022/09/09 06:39:21;;;;;;;4.07;0.90;;;15.70;99.90;;;;;;4989114;28;20069;-86
2022/09/09 06:41:48;;;;;;;2.08;0.85;;;15.60;99.90;;;;;;4990951;28;20081;-86
2022/09/09 06:44:45;;;;;;;2.83;0.98;;;15.50;99.90;;;;;;4990427;28;20490;-84
2022/09/09 06:47:18;;;;;;;3.28;0.75;;;15.50;99.90;;;;;;4997940;28;20393;-85
2022/09/09 06:49:43;;;;;;;4.07;0.90;;;15.40;99.90;;;;;;4994236;28;20085;-85
2022/09/09 06:52:10;;;;;;;6.57;1.10;;;15.50;99.90;;;;;;4994452;28;20034;-85
2022/09/09 06:54:37;;;;;;;3.10;1.02;;;15.50;99.90;;;;;;4993132;28;20041;-85
2022/09/09 06:57:03;;;;;;;6.68;1.30;;;15.70;99.90;;;;;;4978733;28;20477;-85
2022/09/09 06:59:30;;;;;;;3.38;0.60;;;15.80;99.90;;;;;;4993576;28;20026;-86
2022/09/09 07:01:58;;;;;;;3.85;1.20;;;16.10;99.90;;;;;;4994145;28;20425;-85
2022/09/09 07:04:25;;;;;;;3.47;0.82;;;16.40;99.90;;;;;;4981588;28;20046;-85
2022/09/09 07:06:52;;;;;;;3.08;1.08;;;16.50;99.90;;;;;;4995456;28;20022;-86
2022/09/09 07:09:22;;;;;;;3.35;1.08;;;16.40;99.90;;;;;;4994188;28;20026;-86
2022/09/09 07:11:52;;;;;;;6.43;1.33;;;16.40;99.90;;;;;;4992342;28;20823;-85
2022/09/09 07:14:19;;;;;;;4.00;1.17;;;16.50;99.90;;;;;;4993325;28;20037;-86
2022/09/09 07:16:48;;;;;;;2.90;1.10;;;16.40;99.90;;;;;;4995131;28;20535;-86
2022/09/09 07:19:16;;;;;;;6.13;1.13;;;16.30;99.90;;;;;;4994735;28;20026;-86
2022/09/09 07:21:43;;;;;;;4.22;1.17;;;16.40;99.90;;;;;;4977801;28;20097;-85
2022/09/09 07:24:11;;;;;;;4.50;1.08;;;16.60;99.90;;;;;;4994773;28;20022;-86
2022/09/09 07:26:40;;;;;;;7.10;1.10;;;16.80;99.90;;;;;;4998847;28;20556;-85
2022/09/09 07:29:07;;;;;;;7.68;1.20;;;16.80;99.90;;;;;;4994787;28;20386;-85
2022/09/09 07:31:36;;;;;;;4.20;1.98;;;16.70;99.90;;;;;;4993391;28;20031;-85
2022/09/09 07:34:05;;;;;;;8.03;2.90;;;16.40;99.90;;;;;;4994175;28;20042;-86
2022/09/09 07:36:34;;;;;;;3.63;1.60;;;16.20;99.90;;;;;;4975148;28;20023;-86
2022/09/09 07:39:07;;;;;;;5.25;1.52;;;16.10;99.90;;;;;;4987868;28;20117;-85
2022/09/09 07:41:37;;;;;;;9.57;1.55;;;16.00;99.90;;;;;;4993834;28;20038;-85
2022/09/09 07:44:12;;;;;;;5.38;1.35;;;15.90;99.90;;;;;;4988900;28;20125;-85
2022/09/09 07:46:41;;;;;;;2.72;1.30;;;16.10;99.90;;;;;;4982125;28;20041;-85
2022/09/09 07:49:09;;;;;;;10.15;1.95;;;16.30;99.90;;;;;;4993172;28;20029;-85
2022/09/09 07:51:38;;;;;;;7.22;1.77;;;16.30;99.90;;;;;;4993760;28;20118;-86
2022/09/09 07:54:10;;;;;;;5.88;1.60;;;16.50;99.90;;;;;;4993197;28;20125;-86
2022/09/09 07:56:39;;;;;;;2.50;1.05;;;16.80;99.90;;;;;;4993094;28;20077;-85
2022/09/09 07:59:06;;;;;;;9.50;1.70;;;16.80;99.90;;;;;;4992567;28;20118;-85
2022/09/09 08:01:38;;;;;;;7.70;1.83;;;16.70;99.90;;;;;;4995264;28;20069;-86
2022/09/09 08:04:14;;;;;;;13.68;2.45;;;16.60;99.90;;;;;;4979240;28;20771;-86
2022/09/09 08:06:46;;;;;;;5.57;2.67;;;16.50;99.90;;;;;;4994195;28;20034;-86
2022/09/09 08:09:14;;;;;;;8.55;1.45;;;16.50;99.90;;;;;;4996294;28;20022;-85
2022/09/09 08:11:41;;;;;;;13.13;2.00;;;16.60;99.90;;;;;;4994130;28;20022;-85
2022/09/09 08:14:09;;;;;;;9.18;1.70;;;16.60;99.90;;;;;;4995377;28;20030;-86
2022/09/09 08:16:41;;;;;;;10.95;2.13;;;16.50;99.90;;;;;;4993797;28;20556;-86
2022/09/09 08:19:07;;;;;;;4.47;1.90;;;16.50;99.90;;;;;;4993859;28;20465;-85
2022/09/09 08:22:02;;;;;;;11.68;2.65;;;16.50;99.90;;;;;;4993671;28;20031;-86
2022/09/09 08:24:48;;;;;;;9.25;1.75;;;16.80;99.90;;;;;;4979486;28;20038;-85
2022/09/09 08:27:13;;;;;;;8.23;1.85;;;16.90;99.90;;;;;;4993495;28;20030;-85
2022/09/09 08:29:39;;;;;;;10.30;2.00;;;16.90;99.90;;;;;;4993606;28;20036;-85
2022/09/09 08:32:05;;;;;;;5.45;2.10;;;17.00;99.90;;;;;;4993904;28;20030;-85
2022/09/09 08:34:32;;;;;;;7.63;2.13;;;16.90;99.90;;;;;;4993978;28;20046;-85
2022/09/09 08:37:02;;;;;;;11.95;1.77;;;17.00;99.90;;;;;;4993600;28;20081;-84
2022/09/09 08:40:10;;;;;;;12.52;2.13;;;17.00;99.90;;;;;;4993244;28;20092;-86
2022/09/09 08:42:49;;;;;;;9.38;2.38;;;17.30;99.90;;;;;;4993984;28;20465;-86
2022/09/09 08:45:35;;;;;;;10.20;1.92;;;17.70;99.90;;;;;;4993398;28;20037;-85
2022/09/09 08:48:30;;;;;;;8.55;1.90;;;18.00;99.90;;;;;;4986216;28;20069;-86
2022/09/09 08:51:01;;;;;;;9.02;1.70;;;19.50;99.90;;;;;;4992938;28;20730;-86
2022/09/09 08:53:30;;;;;;;;;;;20.10;99.90;;;;;;5004015;28;20599;-86
2022/09/09 08:56:36;;;;;;;12.70;1.98;;;21.30;99.90;;;;;;4992619;28;19959;-85
2022/09/09 08:59:04;;;;;;;8.90;1.60;;;20.80;99.90;;;;;;4993175;28;20105;-85
2022/09/09 09:02:01;;;;;;;11.18;1.95;;;19.70;99.90;;;;;;4992849;28;20030;-86
2022/09/09 09:04:56;;;;;;;7.50;1.50;;;19.00;99.90;;;;;;4987089;28;20026;-85
2022/09/09 09:07:51;;;;;;;12.55;2.05;;;18.60;99.90;;;;;;4992199;28;20590;-86
2022/09/09 09:10:44;;;;;;;7.47;1.73;;;18.50;99.90;;;;;;4975727;28;20402;-86
2022/09/09 09:13:17;;;;;;;10.65;2.10;;;19.50;99.90;;;;;;4987079;28;20392;-86
2022/09/09 09:15:50;;;;;;;8.43;2.05;;;19.80;99.90;;;;;;4993141;28;20034;-87
2022/09/09 09:18:17;;;;;;;16.70;2.63;;;19.10;99.90;;;;;;4993292;28;20378;-88
2022/09/09 09:25:01;;;;;;;12.25;1.92;;;16.40;99.90;;;;;;4990787;28;20045;-86
2022/09/09 09:27:40;;;;;;;11.93;1.77;;;15.40;99.90;;;;;;4993041;28;20031;-86
2022/09/09 09:30:21;;;;;;;8.65;1.73;;;15.20;99.90;;;;;;4992309;28;20034;-86
2022/09/09 09:33:01;;;;;;;5.50;1.80;;;15.10;99.90;;;;;;4976963;28;20069;-86
2022/09/09 09:35:27;;;;;;;8.68;1.80;;;15.30;99.90;;;;;;4993229;28;20035;-87
2022/09/09 09:37:53;;;;;;;6.68;1.67;;;15.90;99.90;;;;;;4993321;28;20032;-87
2022/09/09 09:40:21;;;;;;;4.78;1.48;;;16.40;99.90;;;;;;4992993;28;20510;-87
2022/09/09 09:42:52;;;;;;;10.02;1.30;;;17.00;99.90;;;;;;4992719;28;20034;-86
2022/09/09 09:45:29;;;;;;;5.57;1.48;;;17.10;99.90;;;;;;4990417;28;20370;-86
2022/09/09 09:48:01;;;;;;;3.05;1.15;;;17.30;99.90;;;;;;4984723;28;20088;-86
2022/09/09 09:50:29;;;;;;;10.50;1.60;;;17.50;99.90;;;;;;4978093;28;20074;-87
2022/09/09 09:53:01;;;;;;;2.17;1.10;;;17.80;99.90;;;;;;4992839;28;20027;-88
2022/09/09 09:55:31;;;;;;;10.35;1.30;;;18.00;99.90;;;;;;4980658;28;20636;-85
2022/09/09 09:58:05;;;;;;;5.50;1.50;;;17.90;99.90;;;;;;4978920;28;20026;-86
2022/09/09 10:00:32;;;;;;;9.13;2.45;;;17.70;99.90;;;;;;4982194;28;20023;-86
2022/09/09 10:03:20;;;;;;;7.55;1.65;;;18.00;99.90;;;;;;4989280;28;20027;-86
2022/09/09 10:05:46;;;;;;;9.30;1.60;;;18.40;99.90;;;;;;4981582;28;20026;-86
2022/09/09 10:08:16;;;;;;;4.63;1.20;;;18.70;99.90;;;;;;4988540;28;20077;-86
2022/09/09 10:11:09;;;;;;;4.38;1.15;;;19.40;99.90;;;;;;5005052;28;20077;-86
2022/09/09 10:13:40;;;;;;;8.15;1.77;;;19.50;99.90;;;;;;4969215;28;20079;-85
2022/09/09 10:16:25;;;;;;;;;;;19.50;99.90;;;;;;4992183;28;20026;-84
2022/09/09 10:19:06;;;;;;;6.30;1.38;;;19.70;99.90;;;;;;4987350;28;20004;-86
2022/09/09 10:21:57;;;;;;;6.82;1.73;;;19.60;99.90;;;;;;4982012;28;20045;-85
2022/09/09 10:24:50;;;;;;;11.13;3.15;;;18.80;99.90;;;;;;4990697;28;20388;-86
2022/09/09 10:27:34;;;;;;;5.43;1.98;;;18.80;99.90;;;;;;4972361;28;20038;-85
2022/09/09 10:30:19;;;;;;;6.38;1.50;;;19.00;99.90;;;;;;4983982;28;20065;-85
2022/09/09 10:32:50;;;;;;;3.40;1.42;;;19.30;99.90;;;;;;4968324;28;20026;-85
2022/09/09 10:35:45;;;;;;;6.85;1.50;;;19.10;99.90;;;;;;4993580;28;20045;-85
2022/09/09 10:38:16;;;;;;;8.95;1.90;;;19.10;99.90;;;;;;4966620;28;20022;-85
2022/09/09 10:40:56;;;;;;;9.52;1.80;;;19.10;99.90;;;;;;4975470;28;20093;-85
2022/09/09 10:43:49;;;;;;;12.55;2.55;;;18.60;99.90;;;;;;4991331;28;20122;-86
2022/09/09 10:46:30;;;;;;;10.05;1.77;;;18.30;99.90;;;;;;4973036;28;20026;-86
2022/09/09 10:49:12;;;;;;;7.40;1.65;;;18.60;99.90;;;;;;4985698;28;20027;-86
2022/09/09 10:51:54;;;;;;;9.90;1.90;;;19.30;99.90;;;;;;4973911;28;20121;-85
2022/09/09 10:54:53;;;;;;;4.47;1.20;;;20.10;99.90;;;;;;4980976;28;20042;-86
2022/09/09 10:57:37;;;;;;;5.78;1.38;;;20.60;99.90;;;;;;4982169;28;20040;-86
2022/09/09 11:00:15;;;;;;;8.52;1.35;;;20.90;99.90;;;;;;4993003;28;20038;-85
2022/09/09 11:02:44;;;;;;;2.78;1.00;;;21.00;99.90;;;;;;4993822;28;20030;-87
2022/09/09 11:05:18;;;;;;;6.43;0.85;;;20.90;99.90;;;;;;4991125;28;20443;-86
2022/09/09 11:07:58;;;;;;;7.43;1.65;;;20.50;99.90;;;;;;4994179;28;20053;-85
2022/09/09 11:10:39;;;;;;;3.95;1.10;;;20.30;99.90;;;;;;4972223;28;20034;-86
2022/09/09 11:13:15;;;;;;;7.07;1.33;;;19.90;99.90;;;;;;4975666;28;20030;-86
2022/09/09 11:15:52;;;;;;;10.23;1.15;;;20.00;99.90;;;;;;4993373;28;20030;-85
2022/09/09 11:18:23;;;;;;;6.75;1.10;;;20.50;99.90;;;;;;4990834;28;20092;-85
2022/09/09 11:20:54;;;;;;;5.20;0.93;;;21.00;99.90;;;;;;4990941;28;20080;-87
2022/09/09 11:23:45;;;;;;;5.50;1.10;;;21.00;99.90;;;;;;4990892;28;20038;-85
2022/09/09 11:29:36;;;;;;;5.80;1.02;;;20.90;99.90;;;;;;4995113;28;20000;-86
2022/09/09 11:32:11;;;;;;;4.78;1.80;;;21.70;99.90;;;;;;4994577;28;20038;-86
2022/09/09 11:35:02;;;;;;;3.13;1.17;;;21.50;99.90;;;;;;4995987;28;20030;-85
2022/09/09 11:37:46;;;;;;;5.50;1.00;;;21.30;99.90;;;;;;4982092;28;20088;-87
2022/09/09 11:40:25;;;;;;;7.38;1.40;;;21.20;99.90;;;;;;4981508;28;20117;-86
2022/09/09 11:43:02;;;;;;;3.97;0.98;;;21.00;99.90;;;;;;4994413;28;20117;-86
2022/09/09 11:45:29;;;;;;;4.47;1.63;;;21.50;99.90;;;;;;4990048;28;20034;-85
2022/09/09 11:48:02;;;;;;;3.92;1.30;;;21.70;99.90;;;;;;5004439;28;20097;-86
2022/09/09 11:50:36;;;;;;;6.88;1.20;;;21.90;99.90;;;;;;4998049;28;20478;-86
2022/09/09 11:53:13;;;;;;;3.22;1.00;;;21.60;99.90;;;;;;4995622;28;20084;-85
2022/09/09 11:55:40;;;;;;;3.08;1.00;;;21.10;99.90;;;;;;4994675;28;20032;-85
2022/09/09 11:58:17;;;;;;;6.20;1.48;;;20.80;99.90;;;;;;4994643;28;20093;-86
2022/09/09 12:00:47;;;;;;;8.05;1.20;;;20.00;99.90;;;;;;4994767;28;20030;-86
2022/09/09 12:03:50;;;;;;;9.23;1.50;;;19.30;99.90;;;;;;4994404;28;20033;-86
2022/09/09 12:06:31;;;;;;;6.43;1.20;;;19.90;99.90;;;;;;4994440;28;20041;-86
2022/09/09 12:09:13;;;;;;;7.55;1.38;;;20.50;99.90;;;;;;4998306;28;20030;-86
2022/09/09 12:11:39;;;;;;;7.22;1.92;;;20.10;99.90;;;;;;4991193;28;20406;-85
2022/09/09 12:14:18;;;;;;;10.15;1.20;;;19.70;99.90;;;;;;4993913;28;20026;-85
2022/09/09 12:16:44;;;;;;;8.80;1.38;;;19.30;99.90;;;;;;4993999;28;20038;-85
2022/09/09 12:19:21;;;;;;;14.85;1.88;;;18.80;99.90;;;;;;4993840;28;20105;-85
2022/09/09 12:22:06;;;;;;;9.88;1.60;;;18.70;99.90;;;;;;4976986;28;20477;-85
2022/09/09 12:24:48;;;;;;;10.18;2.03;;;18.40;99.90;;;;;;4993792;28;20066;-84
2022/09/09 12:27:14;;;;;;;6.25;1.38;;;18.30;99.90;;;;;;4989502;28;20039;-86
2022/09/09 12:29:57;;;;;;;6.30;1.40;;;18.40;99.90;;;;;;4992145;28;20058;-85
2022/09/09 12:32:26;;;;;;;9.15;1.55;;;18.50;99.90;;;;;;4988722;28;20089;-86
2022/09/09 12:38:36;;;;;;;4.93;1.25;;;18.90;99.90;;;;;;4993655;28;20502;-85
2022/09/09 12:41:02;;;;;;;7.13;1.13;;;19.30;99.90;;;;;;4993781;28;20462;-85
2022/09/09 12:43:29;;;;;;;7.55;1.38;;;19.20;99.90;;;;;;4993163;28;20034;-86
2022/09/09 12:46:00;;;;;;;5.60;1.35;;;19.10;99.90;;;;;;4993365;28;20034;-86
2022/09/09 12:48:36;;;;;;;4.63;1.55;;;19.20;99.90;;;;;;4994950;28;20117;-86
2022/09/09 12:51:05;;;;;;;3.63;1.60;;;19.50;99.90;;;;;;4993235;28;20256;-85
2022/09/09 12:53:35;;;;;;;14.27;1.45;;;20.40;99.90;;;;;;4993801;28;20034;-85
2022/09/09 12:56:06;;;;;;;5.57;1.73;;;20.70;99.90;;;;;;4999652;28;20022;-85
2022/09/09 12:58:32;;;;;;;4.70;1.23;;;21.00;99.90;;;;;;4993888;28;20035;-85
2022/09/09 13:01:00;;;;;;;7.10;1.35;;;20.90;99.90;;;;;;4993125;28;20050;-86
2022/09/09 13:03:26;;;;;;;7.53;1.27;;;20.80;99.90;;;;;;4992849;28;20481;-86
2022/09/09 13:05:53;;;;;;;6.32;1.60;;;20.60;99.90;;;;;;4993075;28;20482;-85
2022/09/09 13:08:20;;;;;;;6.35;1.30;;;20.40;99.90;;;;;;4993426;28;20061;-86
2022/09/09 13:11:06;;;;;;;6.18;1.45;;;20.20;99.90;;;;;;4993551;28;20529;-85
2022/09/09 13:13:38;;;;;;;5.68;1.58;;;19.80;99.90;;;;;;4988591;28;20053;-85
2022/09/09 13:16:08;;;;;;;8.65;1.40;;;19.50;99.90;;;;;;4988841;28;20084;-84
2022/09/09 13:18:41;;;;;;;9.30;2.17;;;19.30;99.90;;;;;;4992540;28;20125;-86
2022/09/09 13:21:07;;;;;;;6.82;1.27;;;19.30;99.90;;;;;;5006501;28;20071;-86
2022/09/09 13:23:35;;;;;;;3.92;1.10;;;19.10;99.90;;;;;;4978836;28;20030;-86
2022/09/09 13:26:05;;;;;;;6.47;1.50;;;19.10;99.90;;;;;;4991916;28;20062;-85
2022/09/09 13:28:32;;;;;;;11.80;2.37;;;19.00;99.90;;;;;;4976344;28;20121;-85
2022/09/09 13:31:19;;;;;;;10.93;1.42;;;19.20;99.90;;;;;;4997504;28;20305;-86
2022/09/09 13:33:45;;;;;;;5.95;2.00;;;19.20;99.90;;;;;;4979750;28;20034;-85
2022/09/09 13:36:14;;;;;;;6.70;1.65;;;19.20;99.90;;;;;;4992656;28;20033;-85
2022/09/09 13:38:51;;;;;;;5.95;1.25;;;18.90;99.90;;;;;;4993756;28;20030;-86